createdAt,value
2023-03-23T00:11:36.454Z,7.30
2023-03-23T00:23:34.181Z,7.70
2023-03-23T00:35:34.681Z,7.80
2023-03-23T00:47:37.801Z,7.50
2023-03-23T00:59:35.532Z,7.70
2023-03-23T01:11:35.973Z,7.80
2023-03-23T01:23:36.459Z,8.00
2023-03-23T01:35:39.325Z,8.30
2023-03-23T01:47:37.507Z,9.40
2023-03-23T01:59:38.013Z,9.40
2023-03-23T02:11:38.295Z,11.10
2023-03-23T02:23:38.716Z,12.20
2023-03-23T02:35:39.325Z,11.20
2023-03-23T02:47:39.696Z,10.60
2023-03-23T02:59:40.079Z,11.50
2023-03-23T03:11:40.533Z,10.90
2023-03-23T03:23:40.955Z,10.30
2023-03-23T03:35:41.568Z,10.80
2023-03-23T03:47:41.869Z,10.60
2023-03-23T03:59:42.328Z,11.00
2023-03-23T04:11:42.811Z,12.70
2023-03-23T04:23:43.221Z,14.60
2023-03-23T04:35:44.360Z,13.40
2023-03-23T04:47:46.443Z,13.80
2023-03-23T04:59:46.826Z,13.50
2023-03-23T05:11:45.036Z,14.00
2023-03-23T05:23:45.493Z,14.80
2023-03-23T05:35:46.372Z,16.00
2023-03-23T05:47:46.386Z,15.90
2023-03-23T05:59:46.882Z,13.30
2023-03-23T06:11:47.315Z,13.90
2023-03-23T06:23:47.750Z,13.30
2023-03-23T06:35:48.260Z,10.60
2023-03-23T06:47:48.695Z,10.50
2023-03-23T06:59:49.267Z,15.30
2023-03-23T07:11:49.569Z,9.50
2023-03-23T07:23:50.027Z,12.60
2023-03-23T07:35:50.485Z,9.00
2023-03-23T07:47:50.938Z,11.40
2023-03-23T07:59:51.373Z,8.80
2023-03-23T08:11:51.842Z,9.00
2023-03-23T08:23:52.301Z,7.10
2023-03-23T08:35:52.796Z,7.10
2023-03-23T08:47:53.189Z,6.10
2023-03-23T08:59:53.652Z,5.70
2023-03-23T09:11:54.074Z,5.50
2023-03-23T09:23:54.618Z,5.70
2023-03-23T09:35:55.056Z,6.10
2023-03-23T09:47:55.488Z,5.30
2023-03-23T09:59:58.242Z,5.30
2023-03-23T10:11:56.372Z,5.40
2023-03-23T10:23:56.845Z,5.30
2023-03-23T10:35:59.563Z,5.30
2023-03-23T10:47:59.980Z,4.50
2023-03-23T11:00:00.525Z,3.70
2023-03-23T11:12:02.137Z,3.80
2023-03-23T11:24:09.336Z,4.20
2023-03-23T11:35:59.616Z,4.50
2023-03-23T11:48:00.014Z,5.80
2023-03-23T12:00:00.506Z,5.00
2023-03-23T12:12:00.960Z,5.40
2023-03-23T12:24:03.177Z,5.80
2023-03-23T12:36:01.924Z,6.00
2023-03-23T12:48:02.318Z,7.10
2023-03-23T13:00:02.785Z,6.60
2023-03-23T13:12:03.229Z,7.60
2023-03-23T13:24:03.738Z,9.30
2023-03-23T13:36:06.073Z,8.60
2023-03-23T13:48:04.597Z,9.00
2023-03-23T14:00:05.036Z,8.10
2023-03-23T14:12:05.542Z,9.50
2023-03-23T14:24:05.924Z,8.30
2023-03-23T14:36:06.503Z,8.60
2023-03-23T14:48:06.846Z,7.30
2023-03-23T15:00:07.323Z,7.20
2023-03-23T15:12:07.801Z,7.20
2023-03-23T15:24:08.262Z,7.30
2023-03-23T15:36:08.720Z,9.40
2023-03-23T15:48:09.173Z,8.90
2023-03-23T16:00:09.621Z,9.60
2023-03-23T16:12:10.062Z,9.50
2023-03-23T16:24:10.506Z,8.30
2023-03-23T16:36:11.681Z,7.30
2023-03-23T16:48:11.461Z,7.00
2023-03-23T17:00:11.864Z,8.40
2023-03-23T17:12:12.336Z,7.70
2023-03-23T17:24:12.824Z,10.50
2023-03-23T17:36:13.361Z,10.30
2023-03-23T17:48:13.756Z,13.70
2023-03-23T18:00:16.484Z,13.30
2023-03-23T18:12:14.633Z,8.90
2023-03-23T18:24:15.060Z,9.40
2023-03-23T18:36:15.536Z,10.60
2023-03-23T18:48:15.971Z,18.50
2023-03-23T19:00:16.437Z,17.60
2023-03-23T19:12:16.871Z,15.20
2023-03-23T19:24:17.495Z,17.20
2023-03-23T19:36:18.446Z,17.60
2023-03-23T19:48:18.290Z,18.20
2023-03-23T20:00:18.677Z,22.80
2023-03-23T20:12:19.190Z,22.50
2023-03-23T20:24:19.607Z,21.20
2023-03-23T20:36:20.142Z,20.20
2023-03-23T20:48:23.331Z,22.50
2023-03-23T21:00:21.433Z,20.30
2023-03-23T21:12:23.748Z,19.90
2023-03-23T21:24:22.053Z,20.30
2023-03-23T21:36:24.649Z,20.20
2023-03-23T21:48:22.781Z,22.50
2023-03-23T22:00:23.221Z,21.60
2023-03-23T22:12:23.704Z,22.50
2023-03-23T22:24:24.119Z,23.50
2023-03-23T22:36:24.654Z,26.40
2023-03-23T22:48:25.025Z,21.80
2023-03-23T23:00:25.521Z,23.70
2023-03-23T23:12:25.939Z,23.80
2023-03-23T23:24:26.450Z,22.90
2023-03-23T23:36:26.867Z,22.30
2023-03-23T23:48:27.352Z,19.50
